Terminal Aerodrome Forecast
Issued by NWS Bismarck, ND

Home | Current Version | Previous Version | Text Only | Print | Product List | Glossary Off
Versions: 1 2 3 4 5 6 7 8 9 10 11 12 13 14 15 16 17 18 19

000
FTUS43 KBIS 260700 AAA
TAFISN
TAF AMD
KISN 260721Z 2607/2706 32006KT P6SM OVC012
      TEMPO 2609/2612 SCT015 BKN035
     FM261200 34008KT P6SM SCT020 BKN035
     FM261400 VRB02KT P6SM SCT015 BKN150
     FM262200 24004KT P6SM SCT010 BKN035=

USA.gov is the U.S. government's official web portal to all federal, state and local government web resources and services.